Share

Friona, TX (79035)

WT_Meso Friona 2NE (MFAST2) Elev 4004 ft | 34.65 °N, 102.69 °W | Change Station

Current weather conditions updated 49 minutes ago

Clear
Clear
50 °F
Feels Like 46 °F
N
11
Wind Variable Wind from East
Gusts 14.0 mph
Sunrise 7:16 AM
Sunset 8:24 PM
Moon Waning Gibbous

Tomorrow is forecast to be Much Warmer than today.

Pressure 30.22 in
Visibility 10.0 miles
Clouds Clear
Windchill 46 °F
Dew Point 35 °F
Humidity 57%
Rainfall -999.00 in
Snow Depth Not available.
UV 0 out of 16
Pollen 6.80 out of 12
Air Quality Not available.
Flu Activity Local Activity
METAR KCVN 180155Z AUTO 09009KT 10SM CLR 11/01 A3022 RMK AO1

More Conditions Fewer Conditions

Pressure 30.22 in
Visibility 10.0 miles
Clouds Clear
Windchill 46 °F
Dew Point 35 °F
Humidity 57%
Rainfall -999.00 in
Snow Depth Not available.
UV 0 out of 16
Pollen 6.80 out of 12
Air Quality Not available.
Flu Activity Local Activity
METAR KCVN 180155Z AUTO 09009KT 10SM CLR 11/01 A3022 RMK AO1

More Conditions Fewer Conditions

10-Day Forecast

Almanac

Astronomy

Apr. 17, 2014 Rise Set
Actual Time 7:16 AM CDT 8:24 PM CDT
Civil Twilight 6:50 AM CDT 8:50 PM CDT
Nautical Twilight 6:19 AM CDT 9:21 PM CDT
Astronomical Twilight 5:47 AM CDT 9:53 PM CDT
Moon 11:07 PM CDT (4/17) 8:54 AM CDT (4/17)
Length of Visible Light 14h 00m
Length of Day
13h 07m
Tomorrow will be 2m 2s longer.
Waning Gibbous, 91% of the Moon is Illuminated
Today
Waning Gibbous
Apr 22
Last Quarter
Apr 29
New
May 6
First Quarter
May 14
Full

Today's Extremes

State Highs State Lows

Community

  • Morning Light
    Morning Light
  • New Day
    New Day
  • Lake Michigan Sunrise
    Lake Michigan Sunrise
  • sunset from izmir, narlıdere
    sunset from izmir, narlıdere
  • oregon cherry
    oregon cherry

WunderPhotos

Upload Photos

1,702,221 photos uploaded!

WunderBlogs® & News

Nearby

Snow Depth

Station Depth Elevation
No new snow has been reported.

Coastal Water Temperatures

Place Temperature
No Stations Reporting

Earthquake Activity

City Distance Mag. Time & Date
No recent earthquake activity has been reported nearby.
Minimum magnitude displayed is 2.5.

Nearby Weather Stations

Station Location Temp. Windchill Dew Point Humidity Wind Precip. Elev Updated Type
WT_Meso Friona 2NE, Friona, TX 50 °F 46 °F 35 °F 57% East  at  11 mph 0.00 in / hr 4004 ft 8:25 PM CDT MADIS
RAWS BOOTLEG TX, Friona, TX 52 °F - 34 °F 51% ENE  at  12 mph 0.00 in / hr 4058 ft 8:03 PM CDT MADIS

Show More Stations Show Fewer Stations

What do you think?

We're not finished. Please let us know what you like, what you don't like, and what you are still missing.